Date,TemperatureHighF,TemperatureAvgF,TemperatureLowF,DewpointHighF,DewpointAvgF,DewpointLowF,HumidityHigh,HumidityAvg,HumidityLow,PressureMaxIn,PressureMinIn,WindSpeedMaxMPH,WindSpeedAvgMPH,GustSpeedMaxMPH,PrecipitationSumIn
2013-3-1,38.8,31.3,27.5,29.0,25.3,20.0,92,79,60,30.09,29.95,4,1,13,0.06
2013-3-2,32.5,27.6,25.2,24.1,20.7,17.5,84,75,66,30.10,30.06,9,3,23,0.00
2013-3-3,42.6,26.5,16.0,21.4,15.3,11.5,84,65,30,30.08,30.02,9,3,23,0.01
2013-3-4,39.7,28.1,14.5,27.9,20.0,11.1,89,73,51,30.09,29.96,7,2,19,0.00
2013-3-5,32.9,30.3,27.7,29.9,28.0,26.5,95,91,79,29.96,29.72,8,4,25,0.00
2013-3-6,35.6,31.5,28.0,31.1,28.0,25.4,94,87,79,30.23,29.88,9,4,24,0.01
2013-3-7,46.0,34.7,27.5,29.8,26.4,22.1,89,73,48,30.35,30.22,6,3,14,0.21
2013-3-8,47.5,31.3,17.1,27.4,22.0,15.1,93,71,44,30.45,30.29,6,2,19,0.00
2013-3-9,43.7,36.5,27.1,34.1,29.2,21.0,81,75,60,30.29,29.86,8,3,27,0.00
2013-3-10,57.0,46.4,37.4,48.5,41.3,33.5,94,83,69,29.86,29.64,8,2,27,0.33
2013-3-11,50.0,41.0,32.4,47.8,38.4,29.6,95,91,84,29.76,29.54,12,6,41,0.09
2013-3-12,39.4,32.4,27.5,30.0,26.1,20.6,93,78,56,29.95,29.77,15,4,44,0.01
2013-3-13,40.5,29.0,23.4,21.9,17.5,13.8,87,63,39,30.27,29.95,12,6,33,0.01
2013-3-14,45.0,31.0,20.8,28.4,19.4,14.2,81,63,39,30.27,30.13,8,4,25,0.00
2013-3-15,49.6,37.3,28.4,40.2,33.0,27.1,96,86,60,30.06,29.69,9,2,17,0.14
2013-3-16,36.9,33.5,29.7,35.7,30.3,23.4,96,88,77,30.06,29.63,7,2,21,0.00
2013-3-17,39.4,32.3,28.8,24.8,22.5,20.0,78,67,51,30.15,29.97,10,3,28,0.00
2013-3-18,29.1,28.7,28.2,26.1,23.5,22.0,89,80,76,29.97,29.73,10,7,28,0.00
2013-3-19,43.9,32.2,26.4,31.4,23.7,14.6,81,71,49,30.26,29.92,13,3,32,0.67
2013-3-20,31.8,23.3,18.1,15.7,9.5,5.6,80,56,36,29.92,29.86,16,9,33,0.00
2013-3-21,40.5,24.6,14.4,17.3,10.4,5.6,76,56,36,29.90,29.84,12,6,24,0.00
2013-3-22,48.0,30.3,16.7,19.7,16.7,12.2,84,60,32,29.93,29.85,9,2,21,0.00
2013-3-23,48.4,33.5,23.7,26.0,22.7,19.0,84,67,40,29.99,29.86,5,2,19,0.00
2013-3-24,38.1,32.4,28.0,28.3,24.4,21.8,91,73,55,29.88,29.56,14,6,41,0.00
2013-3-25,42.4,33.7,28.0,30.8,27.8,25.5,91,79,60,30.03,29.60,9,4,30,0.18
2013-3-26,48.9,37.0,30.6,31.3,28.1,25.3,94,72,44,30.23,30.03,10,5,31,0.08
2013-3-27,50.9,37.9,28.4,29.2,24.8,19.1,82,61,37,30.30,30.23,9,4,26,0.00
2013-3-28,35.8,31.0,28.0,30.9,27.6,25.1,94,87,78,30.60,30.16,10,4,24,0.00
2013-3-29,46.0,34.9,30.0,29.5,26.5,22.6,88,73,47,30.72,30.59,7,3,18,0.22
2013-3-30,47.5,30.7,17.1,26.9,21.7,14.9,92,72,43,30.82,30.70,7,2,21,0.00
2013-3-31,59.4,33.7,27.1,34.3,25.3,20.4,80,72,37,30.71,30.05,18,3,45,0.94